sensor_id;sensor_type;location;lat;lon;timestamp;P1;durP1;ratioP1;P2;durP2;ratioP2
50821;SDS011;36794;51.212;6.980;2023-11-19T00:00:15;8.53;;;4.27;;
50821;SDS011;36794;51.212;6.980;2023-11-19T00:02:41;6.77;;;4.40;;
50821;SDS011;36794;51.212;6.980;2023-11-19T00:05:07;9.70;;;4.53;;
50821;SDS011;36794;51.212;6.980;2023-11-19T00:07:34;6.50;;;3.50;;
50821;SDS011;36794;51.212;6.980;2023-11-19T00:10:01;7.63;;;3.40;;
50821;SDS011;36794;51.212;6.980;2023-11-19T00:12:29;3.97;;;3.17;;
50821;SDS011;36794;51.212;6.980;2023-11-19T00:14:55;8.23;;;3.70;;
50821;SDS011;36794;51.212;6.980;2023-11-19T00:17:21;4.27;;;3.20;;
50821;SDS011;36794;51.212;6.980;2023-11-19T00:19:47;5.07;;;3.40;;
50821;SDS011;36794;51.212;6.980;2023-11-19T00:22:14;4.77;;;3.27;;
50821;SDS011;36794;51.212;6.980;2023-11-19T00:24:40;4.87;;;3.10;;
50821;SDS011;36794;51.212;6.980;2023-11-19T00:27:06;8.67;;;4.27;;
50821;SDS011;36794;51.212;6.980;2023-11-19T00:29:33;5.00;;;3.40;;
50821;SDS011;36794;51.212;6.980;2023-11-19T00:31:58;4.27;;;3.17;;
50821;SDS011;36794;51.212;6.980;2023-11-19T00:34:24;6.33;;;3.60;;
50821;SDS011;36794;51.212;6.980;2023-11-19T00:36:50;4.87;;;3.37;;
50821;SDS011;36794;51.212;6.980;2023-11-19T00:39:17;8.73;;;3.30;;
50821;SDS011;36794;51.212;6.980;2023-11-19T00:41:43;4.57;;;3.20;;
50821;SDS011;36794;51.212;6.980;2023-11-19T00:44:08;8.10;;;4.07;;
50821;SDS011;36794;51.212;6.980;2023-11-19T00:46:34;6.67;;;3.67;;
50821;SDS011;36794;51.212;6.980;2023-11-19T00:49:01;9.30;;;3.70;;
50821;SDS011;36794;51.212;6.980;2023-11-19T00:51:27;8.10;;;3.83;;
50821;SDS011;36794;51.212;6.980;2023-11-19T00:53:56;5.87;;;4.00;;
50821;SDS011;36794;51.212;6.980;2023-11-19T00:56:22;7.27;;;4.30;;
50821;SDS011;36794;51.212;6.980;2023-11-19T00:58:48;7.70;;;3.67;;
50821;SDS011;36794;51.212;6.980;2023-11-19T01:01:14;8.67;;;3.73;;
50821;SDS011;36794;51.212;6.980;2023-11-19T01:03:40;5.63;;;3.80;;
50821;SDS011;36794;51.212;6.980;2023-11-19T01:06:06;9.70;;;4.40;;
50821;SDS011;36794;51.212;6.980;2023-11-19T01:08:33;6.87;;;4.77;;
50821;SDS011;36794;51.212;6.980;2023-11-19T01:11:00;6.90;;;4.63;;
50821;SDS011;36794;51.212;6.980;2023-11-19T01:13:27;9.73;;;4.63;;
50821;SDS011;36794;51.212;6.980;2023-11-19T01:15:53;7.00;;;4.33;;
50821;SDS011;36794;51.212;6.980;2023-11-19T01:18:21;6.90;;;4.47;;
50821;SDS011;36794;51.212;6.980;2023-11-19T01:20:47;7.97;;;4.30;;
50821;SDS011;36794;51.212;6.980;2023-11-19T01:23:13;6.77;;;4.10;;
50821;SDS011;36794;51.212;6.980;2023-11-19T01:25:39;10.57;;;4.03;;
50821;SDS011;36794;51.212;6.980;2023-11-19T01:28:04;10.07;;;4.07;;
50821;SDS011;36794;51.212;6.980;2023-11-19T01:30:30;7.93;;;3.80;;
50821;SDS011;36794;51.212;6.980;2023-11-19T01:32:57;6.07;;;3.50;;
50821;SDS011;36794;51.212;6.980;2023-11-19T01:35:22;7.63;;;3.60;;
50821;SDS011;36794;51.212;6.980;2023-11-19T01:37:48;6.67;;;3.40;;
50821;SDS011;36794;51.212;6.980;2023-11-19T01:40:19;6.63;;;3.47;;
50821;SDS011;36794;51.212;6.980;2023-11-19T01:42:45;7.33;;;3.33;;
50821;SDS011;36794;51.212;6.980;2023-11-19T01:45:13;5.37;;;3.17;;
50821;SDS011;36794;51.212;6.980;2023-11-19T01:47:43;5.93;;;3.37;;
50821;SDS011;36794;51.212;6.980;2023-11-19T01:50:09;7.77;;;2.83;;
50821;SDS011;36794;51.212;6.980;2023-11-19T01:52:35;5.03;;;2.60;;
50821;SDS011;36794;51.212;6.980;2023-11-19T01:55:02;7.13;;;2.83;;
50821;SDS011;36794;51.212;6.980;2023-11-19T01:57:29;5.00;;;2.53;;
50821;SDS011;36794;51.212;6.980;2023-11-19T01:59:55;4.97;;;2.90;;
50821;SDS011;36794;51.212;6.980;2023-11-19T02:02:21;4.70;;;2.43;;
50821;SDS011;36794;51.212;6.980;2023-11-19T02:04:49;4.93;;;2.07;;
50821;SDS011;36794;51.212;6.980;2023-11-19T02:07:15;7.87;;;1.90;;
50821;SDS011;36794;51.212;6.980;2023-11-19T02:09:42;6.50;;;1.90;;
50821;SDS011;36794;51.212;6.980;2023-11-19T02:12:09;8.17;;;2.37;;
50821;SDS011;36794;51.212;6.980;2023-11-19T02:14:37;6.97;;;1.53;;
50821;SDS011;36794;51.212;6.980;2023-11-19T02:17:03;5.03;;;1.90;;
50821;SDS011;36794;51.212;6.980;2023-11-19T02:19:30;3.90;;;1.60;;
50821;SDS011;36794;51.212;6.980;2023-11-19T02:21:56;7.70;;;2.00;;
50821;SDS011;36794;51.212;6.980;2023-11-19T02:24:22;6.57;;;2.23;;
50821;SDS011;36794;51.212;6.980;2023-11-19T02:26:59;5.17;;;1.93;;
50821;SDS011;36794;51.212;6.980;2023-11-19T02:29:28;12.13;;;2.10;;
50821;SDS011;36794;51.212;6.980;2023-11-19T02:31:54;5.20;;;2.13;;
50821;SDS011;36794;51.212;6.980;2023-11-19T02:34:21;4.63;;;2.30;;
50821;SDS011;36794;51.212;6.980;2023-11-19T02:36:47;5.93;;;2.47;;
50821;SDS011;36794;51.212;6.980;2023-11-19T02:39:13;7.80;;;2.17;;
50821;SDS011;36794;51.212;6.980;2023-11-19T02:41:39;7.27;;;2.80;;
50821;SDS011;36794;51.212;6.980;2023-11-19T02:44:06;7.43;;;2.90;;
50821;SDS011;36794;51.212;6.980;2023-11-19T02:46:32;15.87;;;2.70;;
50821;SDS011;36794;51.212;6.980;2023-11-19T02:48:58;15.63;;;3.30;;
50821;SDS011;36794;51.212;6.980;2023-11-19T02:51:24;10.97;;;2.80;;
50821;SDS011;36794;51.212;6.980;2023-11-19T02:53:50;17.63;;;3.67;;
50821;SDS011;36794;51.212;6.980;2023-11-19T02:56:16;13.00;;;3.97;;
50821;SDS011;36794;51.212;6.980;2023-11-19T02:58:50;14.38;;;3.60;;
50821;SDS011;36794;51.212;6.980;2023-11-19T03:01:23;12.30;;;3.30;;
50821;SDS011;36794;51.212;6.980;2023-11-19T03:03:54;15.18;;;3.72;;
50821;SDS011;36794;51.212;6.980;2023-11-19T03:06:22;21.10;;;3.77;;
50821;SDS011;36794;51.212;6.980;2023-11-19T03:08:48;20.93;;;4.23;;
50821;SDS011;36794;51.212;6.980;2023-11-19T03:11:14;11.80;;;3.40;;
50821;SDS011;36794;51.212;6.980;2023-11-19T03:13:40;15.15;;;4.30;;
50821;SDS011;36794;51.212;6.980;2023-11-19T03:16:06;14.73;;;4.87;;
50821;SDS011;36794;51.212;6.980;2023-11-19T03:18:32;16.83;;;3.80;;
50821;SDS011;36794;51.212;6.980;2023-11-19T03:20:58;14.77;;;3.97;;
50821;SDS011;36794;51.212;6.980;2023-11-19T03:23:25;20.07;;;4.07;;
50821;SDS011;36794;51.212;6.980;2023-11-19T03:25:53;18.83;;;4.20;;
50821;SDS011;36794;51.212;6.980;2023-11-19T03:28:19;20.77;;;4.15;;
50821;SDS011;36794;51.212;6.980;2023-11-19T03:30:45;17.90;;;3.87;;
50821;SDS011;36794;51.212;6.980;2023-11-19T03:33:11;21.70;;;4.57;;
50821;SDS011;36794;51.212;6.980;2023-11-19T03:35:37;22.53;;;4.40;;
50821;SDS011;36794;51.212;6.980;2023-11-19T03:38:03;28.53;;;4.10;;
50821;SDS011;36794;51.212;6.980;2023-11-19T03:40:29;30.50;;;4.30;;
50821;SDS011;36794;51.212;6.980;2023-11-19T03:42:55;22.33;;;3.90;;
50821;SDS011;36794;51.212;6.980;2023-11-19T03:45:23;27.30;;;4.27;;
50821;SDS011;36794;51.212;6.980;2023-11-19T03:47:49;15.88;;;3.28;;
50821;SDS011;36794;51.212;6.980;2023-11-19T03:50:15;23.87;;;3.60;;
50821;SDS011;36794;51.212;6.980;2023-11-19T03:52:43;23.77;;;4.13;;
50821;SDS011;36794;51.212;6.980;2023-11-19T03:55:08;23.25;;;5.00;;
50821;SDS011;36794;51.212;6.980;2023-11-19T03:57:35;24.83;;;4.75;;
50821;SDS011;36794;51.212;6.980;2023-11-19T04:00:01;23.02;;;4.55;;
50821;SDS011;36794;51.212;6.980;2023-11-19T04:02:34;23.03;;;4.17;;
50821;SDS011;36794;51.212;6.980;2023-11-19T04:05:00;32.70;;;4.27;;
50821;SDS011;36794;51.212;6.980;2023-11-19T04:07:26;29.73;;;4.87;;
50821;SDS011;36794;51.212;6.980;2023-11-19T04:09:52;29.47;;;4.20;;
50821;SDS011;36794;51.212;6.980;2023-11-19T04:12:18;26.75;;;3.97;;
50821;SDS011;36794;51.212;6.980;2023-11-19T04:14:44;28.33;;;4.00;;
50821;SDS011;36794;51.212;6.980;2023-11-19T04:17:10;28.30;;;4.20;;
50821;SDS011;36794;51.212;6.980;2023-11-19T04:19:36;25.20;;;4.00;;
50821;SDS011;36794;51.212;6.980;2023-11-19T04:22:03;21.60;;;4.13;;
50821;SDS011;36794;51.212;6.980;2023-11-19T04:24:29;34.00;;;3.75;;
50821;SDS011;36794;51.212;6.980;2023-11-19T04:26:55;31.07;;;4.20;;
50821;SDS011;36794;51.212;6.980;2023-11-19T04:29:21;29.63;;;3.87;;
50821;SDS011;36794;51.212;6.980;2023-11-19T04:31:47;37.23;;;5.33;;
50821;SDS011;36794;51.212;6.980;2023-11-19T04:34:13;24.50;;;3.97;;
50821;SDS011;36794;51.212;6.980;2023-11-19T04:36:39;30.20;;;4.10;;
50821;SDS011;36794;51.212;6.980;2023-11-19T04:39:05;34.60;;;3.50;;
50821;SDS011;36794;51.212;6.980;2023-11-19T04:41:50;25.45;;;3.15;;
50821;SDS011;36794;51.212;6.980;2023-11-19T04:44:19;25.50;;;3.70;;
50821;SDS011;36794;51.212;6.980;2023-11-19T04:46:45;24.42;;;3.42;;
50821;SDS011;36794;51.212;6.980;2023-11-19T04:49:12;25.13;;;3.67;;
50821;SDS011;36794;51.212;6.980;2023-11-19T04:51:42;29.88;;;4.43;;
50821;SDS011;36794;51.212;6.980;2023-11-19T04:54:08;26.73;;;3.80;;
50821;SDS011;36794;51.212;6.980;2023-11-19T04:56:35;37.07;;;3.60;;
50821;SDS011;36794;51.212;6.980;2023-11-19T04:59:04;34.70;;;4.30;;
50821;SDS011;36794;51.212;6.980;2023-11-19T05:01:31;37.15;;;4.40;;
50821;SDS011;36794;51.212;6.980;2023-11-19T05:03:58;33.07;;;3.70;;
50821;SDS011;36794;51.212;6.980;2023-11-19T05:06:25;28.03;;;4.00;;
50821;SDS011;36794;51.212;6.980;2023-11-19T05:08:52;28.40;;;4.87;;
50821;SDS011;36794;51.212;6.980;2023-11-19T05:11:19;33.97;;;4.28;;
50821;SDS011;36794;51.212;6.980;2023-11-19T05:13:45;32.57;;;4.27;;
50821;SDS011;36794;51.212;6.980;2023-11-19T05:16:11;32.67;;;3.90;;
50821;SDS011;36794;51.212;6.980;2023-11-19T05:18:40;25.00;;;4.13;;
50821;SDS011;36794;51.212;6.980;2023-11-19T05:21:06;28.23;;;3.93;;
50821;SDS011;36794;51.212;6.980;2023-11-19T05:23:32;30.13;;;3.80;;
50821;SDS011;36794;51.212;6.980;2023-11-19T05:25:59;29.37;;;4.40;;
50821;SDS011;36794;51.212;6.980;2023-11-19T05:28:25;32.22;;;4.82;;
50821;SDS011;36794;51.212;6.980;2023-11-19T05:30:51;35.83;;;3.90;;
50821;SDS011;36794;51.212;6.980;2023-11-19T05:33:17;27.48;;;3.17;;
50821;SDS011;36794;51.212;6.980;2023-11-19T05:35:43;35.60;;;4.23;;
50821;SDS011;36794;51.212;6.980;2023-11-19T05:38:08;31.55;;;4.45;;
50821;SDS011;36794;51.212;6.980;2023-11-19T05:40:35;30.03;;;4.77;;
50821;SDS011;36794;51.212;6.980;2023-11-19T05:43:01;30.30;;;4.10;;
50821;SDS011;36794;51.212;6.980;2023-11-19T05:45:27;24.20;;;3.63;;
50821;SDS011;36794;51.212;6.980;2023-11-19T05:47:53;27.27;;;4.40;;
50821;SDS011;36794;51.212;6.980;2023-11-19T05:50:19;27.17;;;4.68;;
50821;SDS011;36794;51.212;6.980;2023-11-19T05:52:45;29.50;;;4.87;;
50821;SDS011;36794;51.212;6.980;2023-11-19T05:55:11;32.67;;;4.50;;
50821;SDS011;36794;51.212;6.980;2023-11-19T05:57:39;30.17;;;3.23;;
50821;SDS011;36794;51.212;6.980;2023-11-19T06:00:05;28.13;;;4.43;;
50821;SDS011;36794;51.212;6.980;2023-11-19T06:02:33;33.27;;;4.37;;
50821;SDS011;36794;51.212;6.980;2023-11-19T06:04:59;29.37;;;3.23;;
50821;SDS011;36794;51.212;6.980;2023-11-19T06:07:25;22.90;;;3.60;;
50821;SDS011;36794;51.212;6.980;2023-11-19T06:09:51;24.40;;;3.13;;
50821;SDS011;36794;51.212;6.980;2023-11-19T06:12:17;31.00;;;4.27;;
50821;SDS011;36794;51.212;6.980;2023-11-19T06:14:43;26.40;;;3.70;;
50821;SDS011;36794;51.212;6.980;2023-11-19T06:17:09;33.83;;;3.80;;
50821;SDS011;36794;51.212;6.980;2023-11-19T06:19:36;21.20;;;3.93;;
50821;SDS011;36794;51.212;6.980;2023-11-19T06:22:03;27.10;;;3.73;;
50821;SDS011;36794;51.212;6.980;2023-11-19T06:24:29;20.53;;;3.40;;
50821;SDS011;36794;51.212;6.980;2023-11-19T06:26:55;33.03;;;4.30;;
50821;SDS011;36794;51.212;6.980;2023-11-19T06:29:21;27.53;;;4.20;;
50821;SDS011;36794;51.212;6.980;2023-11-19T06:31:47;26.10;;;3.50;;
50821;SDS011;36794;51.212;6.980;2023-11-19T06:34:13;26.13;;;3.60;;
50821;SDS011;36794;51.212;6.980;2023-11-19T06:36:39;26.30;;;3.40;;
50821;SDS011;36794;51.212;6.980;2023-11-19T06:39:05;31.77;;;4.00;;
50821;SDS011;36794;51.212;6.980;2023-11-19T06:41:31;26.10;;;3.47;;
50821;SDS011;36794;51.212;6.980;2023-11-19T06:43:57;24.00;;;3.80;;
50821;SDS011;36794;51.212;6.980;2023-11-19T06:46:24;25.40;;;4.90;;
50821;SDS011;36794;51.212;6.980;2023-11-19T06:48:50;30.37;;;3.70;;
50821;SDS011;36794;51.212;6.980;2023-11-19T06:51:16;32.07;;;4.03;;
50821;SDS011;36794;51.212;6.980;2023-11-19T06:53:42;26.77;;;3.43;;
50821;SDS011;36794;51.212;6.980;2023-11-19T06:56:17;30.23;;;4.00;;
50821;SDS011;36794;51.212;6.980;2023-11-19T06:58:43;23.63;;;4.00;;
50821;SDS011;36794;51.212;6.980;2023-11-19T07:01:09;23.57;;;3.00;;
50821;SDS011;36794;51.212;6.980;2023-11-19T07:03:35;31.27;;;3.97;;
50821;SDS011;36794;51.212;6.980;2023-11-19T07:06:01;22.50;;;3.57;;
50821;SDS011;36794;51.212;6.980;2023-11-19T07:08:28;31.17;;;4.43;;
50821;SDS011;36794;51.212;6.980;2023-11-19T07:10:54;29.70;;;3.83;;
50821;SDS011;36794;51.212;6.980;2023-11-19T07:13:20;26.83;;;4.13;;
50821;SDS011;36794;51.212;6.980;2023-11-19T07:15:46;30.00;;;3.23;;
50821;SDS011;36794;51.212;6.980;2023-11-19T07:18:13;28.60;;;4.03;;
50821;SDS011;36794;51.212;6.980;2023-11-19T07:20:39;30.80;;;3.10;;
50821;SDS011;36794;51.212;6.980;2023-11-19T07:23:05;30.97;;;4.63;;
50821;SDS011;36794;51.212;6.980;2023-11-19T07:25:31;31.43;;;4.23;;
50821;SDS011;36794;51.212;6.980;2023-11-19T07:27:57;33.30;;;3.67;;
50821;SDS011;36794;51.212;6.980;2023-11-19T07:30:23;23.50;;;4.40;;
50821;SDS011;36794;51.212;6.980;2023-11-19T07:32:49;29.97;;;3.83;;
50821;SDS011;36794;51.212;6.980;2023-11-19T07:35:15;35.63;;;3.90;;
50821;SDS011;36794;51.212;6.980;2023-11-19T07:37:41;28.17;;;4.33;;
50821;SDS011;36794;51.212;6.980;2023-11-19T07:40:07;35.40;;;3.50;;
50821;SDS011;36794;51.212;6.980;2023-11-19T07:42:33;26.30;;;3.67;;
50821;SDS011;36794;51.212;6.980;2023-11-19T07:45:00;36.70;;;4.67;;
50821;SDS011;36794;51.212;6.980;2023-11-19T07:47:26;25.87;;;3.50;;
50821;SDS011;36794;51.212;6.980;2023-11-19T07:49:53;30.73;;;3.70;;
50821;SDS011;36794;51.212;6.980;2023-11-19T07:52:19;30.40;;;4.03;;
50821;SDS011;36794;51.212;6.980;2023-11-19T07:54:46;28.07;;;3.67;;
50821;SDS011;36794;51.212;6.980;2023-11-19T07:57:12;26.70;;;3.90;;
50821;SDS011;36794;51.212;6.980;2023-11-19T07:59:38;27.53;;;3.77;;
50821;SDS011;36794;51.212;6.980;2023-11-19T08:02:04;29.52;;;4.57;;
50821;SDS011;36794;51.212;6.980;2023-11-19T08:04:31;28.48;;;4.00;;
50821;SDS011;36794;51.212;6.980;2023-11-19T08:06:57;23.23;;;3.17;;
50821;SDS011;36794;51.212;6.980;2023-11-19T08:09:23;25.38;;;3.60;;
50821;SDS011;36794;51.212;6.980;2023-11-19T08:11:48;24.27;;;3.35;;
50821;SDS011;36794;51.212;6.980;2023-11-19T08:14:14;26.05;;;5.30;;
50821;SDS011;36794;51.212;6.980;2023-11-19T08:16:40;22.73;;;2.90;;
50821;SDS011;36794;51.212;6.980;2023-11-19T08:19:06;26.60;;;3.70;;
50821;SDS011;36794;51.212;6.980;2023-11-19T08:21:33;25.27;;;3.95;;
50821;SDS011;36794;51.212;6.980;2023-11-19T08:23:59;24.02;;;3.88;;
50821;SDS011;36794;51.212;6.980;2023-11-19T08:26:25;22.15;;;3.72;;
50821;SDS011;36794;51.212;6.980;2023-11-19T08:28:51;29.67;;;4.70;;
50821;SDS011;36794;51.212;6.980;2023-11-19T08:31:17;28.80;;;3.67;;
50821;SDS011;36794;51.212;6.980;2023-11-19T08:33:43;36.03;;;4.97;;
50821;SDS011;36794;51.212;6.980;2023-11-19T08:36:14;20.13;;;3.42;;
50821;SDS011;36794;51.212;6.980;2023-11-19T08:38:41;35.42;;;4.35;;
50821;SDS011;36794;51.212;6.980;2023-11-19T08:41:07;24.70;;;3.50;;
50821;SDS011;36794;51.212;6.980;2023-11-19T08:43:33;21.70;;;3.83;;
50821;SDS011;36794;51.212;6.980;2023-11-19T08:45:59;20.17;;;3.23;;
50821;SDS011;36794;51.212;6.980;2023-11-19T08:48:24;22.87;;;3.50;;
50821;SDS011;36794;51.212;6.980;2023-11-19T08:50:51;26.73;;;3.57;;
50821;SDS011;36794;51.212;6.980;2023-11-19T08:53:16;29.23;;;4.47;;
50821;SDS011;36794;51.212;6.980;2023-11-19T08:55:42;27.13;;;3.93;;
50821;SDS011;36794;51.212;6.980;2023-11-19T08:58:08;23.90;;;3.53;;
50821;SDS011;36794;51.212;6.980;2023-11-19T09:00:34;33.57;;;3.67;;
50821;SDS011;36794;51.212;6.980;2023-11-19T09:03:00;27.83;;;3.38;;
50821;SDS011;36794;51.212;6.980;2023-11-19T09:05:27;27.30;;;3.63;;
50821;SDS011;36794;51.212;6.980;2023-11-19T09:07:52;27.13;;;3.08;;
50821;SDS011;36794;51.212;6.980;2023-11-19T09:10:18;23.45;;;3.63;;
50821;SDS011;36794;51.212;6.980;2023-11-19T09:12:44;31.38;;;3.63;;
50821;SDS011;36794;51.212;6.980;2023-11-19T09:15:10;31.05;;;3.80;;
50821;SDS011;36794;51.212;6.980;2023-11-19T09:17:36;24.80;;;3.85;;
50821;SDS011;36794;51.212;6.980;2023-11-19T09:20:05;31.48;;;4.10;;
50821;SDS011;36794;51.212;6.980;2023-11-19T09:22:32;30.73;;;3.78;;
50821;SDS011;36794;51.212;6.980;2023-11-19T09:25:04;30.23;;;4.65;;
50821;SDS011;36794;51.212;6.980;2023-11-19T09:27:33;34.13;;;4.15;;
50821;SDS011;36794;51.212;6.980;2023-11-19T09:29:59;28.25;;;3.45;;
50821;SDS011;36794;51.212;6.980;2023-11-19T09:32:33;24.08;;;3.85;;
50821;SDS011;36794;51.212;6.980;2023-11-19T09:35:04;28.88;;;4.38;;
50821;SDS011;36794;51.212;6.980;2023-11-19T09:37:31;29.35;;;3.28;;
50821;SDS011;36794;51.212;6.980;2023-11-19T09:39:57;23.67;;;3.97;;
50821;SDS011;36794;51.212;6.980;2023-11-19T09:42:23;30.15;;;4.22;;
50821;SDS011;36794;51.212;6.980;2023-11-19T09:44:49;29.77;;;3.88;;
50821;SDS011;36794;51.212;6.980;2023-11-19T09:47:16;30.20;;;4.85;;
50821;SDS011;36794;51.212;6.980;2023-11-19T09:49:43;25.55;;;4.47;;
50821;SDS011;36794;51.212;6.980;2023-11-19T09:52:09;31.55;;;4.18;;
50821;SDS011;36794;51.212;6.980;2023-11-19T09:54:35;24.48;;;3.70;;
50821;SDS011;36794;51.212;6.980;2023-11-19T09:57:01;28.70;;;3.97;;
50821;SDS011;36794;51.212;6.980;2023-11-19T09:59:29;22.00;;;3.42;;
50821;SDS011;36794;51.212;6.980;2023-11-19T10:01:56;28.83;;;4.57;;
50821;SDS011;36794;51.212;6.980;2023-11-19T10:04:22;30.63;;;4.25;;
50821;SDS011;36794;51.212;6.980;2023-11-19T10:06:49;36.60;;;4.68;;
50821;SDS011;36794;51.212;6.980;2023-11-19T10:09:18;33.90;;;5.00;;
50821;SDS011;36794;51.212;6.980;2023-11-19T10:11:49;45.72;;;4.85;;
50821;SDS011;36794;51.212;6.980;2023-11-19T10:14:15;30.10;;;3.90;;
50821;SDS011;36794;51.212;6.980;2023-11-19T10:16:44;25.33;;;3.53;;
50821;SDS011;36794;51.212;6.980;2023-11-19T10:19:12;26.70;;;3.92;;
50821;SDS011;36794;51.212;6.980;2023-11-19T10:21:45;27.42;;;4.05;;
50821;SDS011;36794;51.212;6.980;2023-11-19T10:24:11;23.00;;;3.20;;
50821;SDS011;36794;51.212;6.980;2023-11-19T10:26:37;22.58;;;3.17;;
50821;SDS011;36794;51.212;6.980;2023-11-19T10:29:03;30.77;;;4.43;;
50821;SDS011;36794;51.212;6.980;2023-11-19T10:31:30;26.48;;;3.55;;
50821;SDS011;36794;51.212;6.980;2023-11-19T10:33:59;30.63;;;4.05;;
50821;SDS011;36794;51.212;6.980;2023-11-19T10:36:37;32.95;;;5.35;;
50821;SDS011;36794;51.212;6.980;2023-11-19T10:39:04;27.65;;;4.40;;
50821;SDS011;36794;51.212;6.980;2023-11-19T10:41:34;28.55;;;3.60;;
50821;SDS011;36794;51.212;6.980;2023-11-19T10:44:00;18.27;;;3.55;;
50821;SDS011;36794;51.212;6.980;2023-11-19T10:46:38;26.25;;;3.92;;
50821;SDS011;36794;51.212;6.980;2023-11-19T10:49:04;26.30;;;3.20;;
50821;SDS011;36794;51.212;6.980;2023-11-19T10:51:31;31.65;;;4.35;;
50821;SDS011;36794;51.212;6.980;2023-11-19T10:54:04;22.45;;;3.75;;
50821;SDS011;36794;51.212;6.980;2023-11-19T10:56:34;30.50;;;3.78;;
50821;SDS011;36794;51.212;6.980;2023-11-19T10:59:00;31.33;;;4.00;;
50821;SDS011;36794;51.212;6.980;2023-11-19T11:01:34;25.80;;;4.07;;
50821;SDS011;36794;51.212;6.980;2023-11-19T11:04:03;23.25;;;3.83;;
50821;SDS011;36794;51.212;6.980;2023-11-19T11:06:29;24.02;;;3.15;;
50821;SDS011;36794;51.212;6.980;2023-11-19T11:08:57;20.67;;;3.35;;
50821;SDS011;36794;51.212;6.980;2023-11-19T11:11:23;20.25;;;3.88;;
50821;SDS011;36794;51.212;6.980;2023-11-19T11:13:51;25.05;;;3.20;;
50821;SDS011;36794;51.212;6.980;2023-11-19T11:16:19;28.15;;;3.28;;
50821;SDS011;36794;51.212;6.980;2023-11-19T11:18:46;24.98;;;2.90;;
50821;SDS011;36794;51.212;6.980;2023-11-19T11:21:15;38.58;;;4.60;;
50821;SDS011;36794;51.212;6.980;2023-11-19T11:24:02;25.75;;;3.75;;
50821;SDS011;36794;51.212;6.980;2023-11-19T11:39:29;23.45;;;3.25;;
50821;SDS011;36794;51.212;6.980;2023-11-19T11:42:38;16.17;;;3.70;;
50821;SDS011;36794;51.212;6.980;2023-11-19T11:45:01;21.40;;;3.63;;
50821;SDS011;36794;51.212;6.980;2023-11-19T11:50:08;22.15;;;3.15;;
50821;SDS011;36794;51.212;6.980;2023-11-19T11:55:18;23.67;;;3.17;;
50821;SDS011;36794;51.212;6.980;2023-11-19T11:57:44;23.33;;;3.67;;
50821;SDS011;36794;51.212;6.980;2023-11-19T12:03:01;21.73;;;3.15;;
50821;SDS011;36794;51.212;6.980;2023-11-19T12:05:29;16.83;;;2.88;;
50821;SDS011;36794;51.212;6.980;2023-11-19T12:08:04;26.67;;;3.45;;
50821;SDS011;36794;51.212;6.980;2023-11-19T12:10:45;23.05;;;2.83;;
50821;SDS011;36794;51.212;6.980;2023-11-19T12:13:15;22.25;;;2.78;;
50821;SDS011;36794;51.212;6.980;2023-11-19T12:18:22;17.90;;;3.05;;
50821;SDS011;36794;51.212;6.980;2023-11-19T12:20:49;27.88;;;4.00;;
50821;SDS011;36794;51.212;6.980;2023-11-19T12:23:15;19.33;;;2.63;;
50821;SDS011;36794;51.212;6.980;2023-11-19T12:25:41;21.67;;;2.67;;
50821;SDS011;36794;51.212;6.980;2023-11-19T12:28:13;18.83;;;2.50;;
50821;SDS011;36794;51.212;6.980;2023-11-19T12:31:06;17.20;;;2.72;;
50821;SDS011;36794;51.212;6.980;2023-11-19T12:33:25;21.23;;;3.03;;
50821;SDS011;36794;51.212;6.980;2023-11-19T12:35:51;16.35;;;2.97;;
50821;SDS011;36794;51.212;6.980;2023-11-19T12:38:21;21.60;;;3.15;;
50821;SDS011;36794;51.212;6.980;2023-11-19T12:40:48;21.65;;;2.78;;
50821;SDS011;36794;51.212;6.980;2023-11-19T12:43:27;23.42;;;3.47;;
50821;SDS011;36794;51.212;6.980;2023-11-19T12:45:53;24.25;;;2.97;;
50821;SDS011;36794;51.212;6.980;2023-11-19T12:48:19;27.13;;;3.95;;
50821;SDS011;36794;51.212;6.980;2023-11-19T12:50:55;16.70;;;3.58;;
50821;SDS011;36794;51.212;6.980;2023-11-19T12:53:22;22.75;;;2.67;;
50821;SDS011;36794;51.212;6.980;2023-11-19T12:55:49;26.08;;;3.05;;
50821;SDS011;36794;51.212;6.980;2023-11-19T13:01:21;21.85;;;3.20;;
50821;SDS011;36794;51.212;6.980;2023-11-19T13:03:47;24.98;;;3.00;;
50821;SDS011;36794;51.212;6.980;2023-11-19T13:06:14;16.92;;;2.90;;
50821;SDS011;36794;51.212;6.980;2023-11-19T13:08:47;16.98;;;2.85;;
50821;SDS011;36794;51.212;6.980;2023-11-19T13:11:15;18.80;;;2.72;;
50821;SDS011;36794;51.212;6.980;2023-11-19T13:13:54;22.33;;;3.00;;
50821;SDS011;36794;51.212;6.980;2023-11-19T13:16:20;22.33;;;2.95;;
50821;SDS011;36794;51.212;6.980;2023-11-19T13:18:47;25.95;;;3.35;;
50821;SDS011;36794;51.212;6.980;2023-11-19T13:21:13;21.75;;;3.72;;
50821;SDS011;36794;51.212;6.980;2023-11-19T13:23:39;24.80;;;3.42;;
50821;SDS011;36794;51.212;6.980;2023-11-19T13:26:05;20.67;;;3.35;;
50821;SDS011;36794;51.212;6.980;2023-11-19T13:28:31;23.83;;;4.20;;
50821;SDS011;36794;51.212;6.980;2023-11-19T13:30:57;23.23;;;2.75;;
50821;SDS011;36794;51.212;6.980;2023-11-19T13:33:23;16.23;;;2.55;;
50821;SDS011;36794;51.212;6.980;2023-11-19T13:35:49;17.80;;;3.00;;
50821;SDS011;36794;51.212;6.980;2023-11-19T13:38:15;16.25;;;2.25;;
50821;SDS011;36794;51.212;6.980;2023-11-19T13:40:41;23.02;;;2.83;;
50821;SDS011;36794;51.212;6.980;2023-11-19T13:43:09;17.08;;;2.60;;
50821;SDS011;36794;51.212;6.980;2023-11-19T13:45:38;18.67;;;2.80;;
50821;SDS011;36794;51.212;6.980;2023-11-19T13:48:04;18.42;;;2.38;;
50821;SDS011;36794;51.212;6.980;2023-11-19T13:50:31;17.42;;;3.08;;
50821;SDS011;36794;51.212;6.980;2023-11-19T13:52:59;23.75;;;3.78;;
50821;SDS011;36794;51.212;6.980;2023-11-19T13:55:25;16.42;;;2.38;;
50821;SDS011;36794;51.212;6.980;2023-11-19T13:57:51;22.20;;;3.03;;
50821;SDS011;36794;51.212;6.980;2023-11-19T14:00:19;16.20;;;2.92;;
50821;SDS011;36794;51.212;6.980;2023-11-19T14:02:47;21.80;;;2.97;;
50821;SDS011;36794;51.212;6.980;2023-11-19T14:05:14;22.90;;;2.72;;
50821;SDS011;36794;51.212;6.980;2023-11-19T14:07:42;18.85;;;3.75;;
50821;SDS011;36794;51.212;6.980;2023-11-19T14:10:09;24.20;;;3.13;;
50821;SDS011;36794;51.212;6.980;2023-11-19T14:12:38;21.38;;;2.95;;
50821;SDS011;36794;51.212;6.980;2023-11-19T14:15:07;24.33;;;3.47;;
50821;SDS011;36794;51.212;6.980;2023-11-19T14:17:42;17.70;;;3.45;;
50821;SDS011;36794;51.212;6.980;2023-11-19T14:20:08;19.98;;;2.80;;
50821;SDS011;36794;51.212;6.980;2023-11-19T14:22:46;23.50;;;3.50;;
50821;SDS011;36794;51.212;6.980;2023-11-19T14:25:14;19.40;;;3.53;;
50821;SDS011;36794;51.212;6.980;2023-11-19T14:27:43;25.90;;;3.08;;
50821;SDS011;36794;51.212;6.980;2023-11-19T14:30:12;19.60;;;2.67;;
50821;SDS011;36794;51.212;6.980;2023-11-19T14:32:39;22.63;;;3.45;;
50821;SDS011;36794;51.212;6.980;2023-11-19T14:35:05;26.47;;;3.60;;
50821;SDS011;36794;51.212;6.980;2023-11-19T14:37:31;22.80;;;3.92;;
50821;SDS011;36794;51.212;6.980;2023-11-19T14:39:57;22.48;;;3.70;;
50821;SDS011;36794;51.212;6.980;2023-11-19T14:42:23;21.73;;;2.88;;
50821;SDS011;36794;51.212;6.980;2023-11-19T14:44:52;28.00;;;3.13;;
50821;SDS011;36794;51.212;6.980;2023-11-19T14:47:21;23.17;;;3.47;;
50821;SDS011;36794;51.212;6.980;2023-11-19T14:49:47;24.55;;;2.88;;
50821;SDS011;36794;51.212;6.980;2023-11-19T14:52:13;22.15;;;2.70;;
50821;SDS011;36794;51.212;6.980;2023-11-19T14:54:46;26.37;;;2.87;;
50821;SDS011;36794;51.212;6.980;2023-11-19T14:57:12;26.97;;;2.77;;
50821;SDS011;36794;51.212;6.980;2023-11-19T14:59:38;24.70;;;3.70;;
50821;SDS011;36794;51.212;6.980;2023-11-19T15:02:04;22.20;;;3.70;;